createdAt,value
2023-02-23T00:01:57.175Z,8.30
2023-02-23T00:04:26.353Z,8.30
2023-02-23T00:06:54.581Z,8.30
2023-02-23T00:09:26.125Z,8.30
2023-02-23T00:11:56.406Z,8.30
2023-02-23T00:14:28.290Z,8.30
2023-02-23T00:16:59.920Z,8.30
2023-02-23T00:19:28.451Z,8.30
2023-02-23T00:21:58.814Z,8.30
2023-02-23T00:24:28.013Z,8.30
2023-02-23T00:26:56.283Z,8.30
2023-02-23T00:29:25.753Z,8.30
2023-02-23T00:31:56.045Z,8.30
2023-02-23T00:34:25.592Z,8.30
2023-02-23T00:36:55.450Z,8.30
2023-02-23T00:39:26.784Z,8.30
2023-02-23T00:41:56.507Z,8.30
2023-02-23T00:44:25.632Z,8.30
2023-02-23T00:46:53.880Z,8.30
2023-02-23T00:49:23.450Z,8.30
2023-02-23T00:51:53.520Z,8.30
2023-02-23T00:54:23.008Z,8.30
2023-02-23T00:56:51.467Z,8.30
2023-02-23T00:59:20.735Z,8.30
2023-02-23T01:01:49.506Z,8.30
2023-02-23T01:04:17.720Z,8.30
2023-02-23T01:06:46.390Z,8.30
2023-02-23T01:09:22.017Z,8.30
2023-02-23T01:11:50.073Z,8.30
2023-02-23T01:14:18.111Z,8.30
2023-02-23T01:16:46.277Z,8.30
2023-02-23T01:19:14.255Z,8.30
2023-02-23T01:21:43.634Z,8.30
2023-02-23T01:24:12.848Z,8.30
2023-02-23T01:26:44.042Z,8.30
2023-02-23T01:29:14.261Z,8.30
2023-02-23T01:31:44.581Z,8.30
2023-02-23T01:34:14.309Z,8.30
2023-02-23T01:36:44.598Z,8.30
2023-02-23T01:39:14.992Z,8.30
2023-02-23T01:41:44.669Z,8.30
2023-02-23T01:44:47.948Z,8.30
2023-02-23T01:47:17.157Z,8.30
2023-02-23T01:49:45.411Z,8.30
2023-02-23T01:52:16.419Z,8.30
2023-02-23T01:54:50.552Z,8.30
2023-02-23T01:57:24.811Z,8.30
2023-02-23T01:59:53.786Z,8.30
2023-02-23T02:02:33.112Z,8.30
2023-02-23T02:05:01.912Z,8.40
2023-02-23T02:07:32.952Z,8.30
2023-02-23T02:10:39.796Z,8.30
2023-02-23T02:13:14.110Z,8.30
2023-02-23T02:16:15.479Z,8.30
2023-02-23T02:19:18.730Z,8.30
2023-02-23T02:22:13.098Z,8.30
2023-02-23T02:25:15.340Z,8.30
2023-02-23T02:28:10.673Z,8.30
2023-02-23T02:30:55.957Z,8.20
2023-02-23T02:33:43.922Z,8.20
2023-02-23T02:36:51.235Z,8.20
2023-02-23T02:39:34.761Z,8.10
2023-02-23T02:42:13.528Z,8.20
2023-02-23T02:44:50.561Z,8.10
2023-02-23T02:47:24.918Z,8.10
2023-02-23T02:50:03.712Z,8.10
2023-02-23T02:52:36.344Z,8.10
2023-02-23T02:55:12.230Z,8.10
2023-02-23T02:57:42.369Z,8.00
2023-02-23T03:00:35.652Z,8.00
2023-02-23T03:03:21.084Z,8.00
2023-02-23T03:06:09.524Z,8.00
2023-02-23T03:09:03.291Z,8.00
2023-02-23T03:11:57.549Z,8.00
2023-02-23T03:14:52.047Z,8.00
2023-02-23T03:17:50.013Z,8.00
2023-02-23T03:20:45.206Z,8.00
2023-02-23T03:23:38.394Z,7.90
2023-02-23T03:26:27.876Z,8.00
2023-02-23T03:29:22.652Z,8.00
2023-02-23T03:32:13.940Z,7.90
2023-02-23T03:35:05.030Z,7.90
2023-02-23T03:37:57.836Z,7.90
2023-02-23T03:40:48.514Z,7.90
2023-02-23T03:43:38.526Z,7.90
2023-02-23T03:46:29.119Z,7.90
2023-02-23T03:49:18.973Z,7.90
2023-02-23T03:52:10.141Z,7.80
2023-02-23T03:54:59.489Z,7.80
2023-02-23T03:57:48.079Z,7.80
2023-02-23T04:00:40.111Z,7.70
2023-02-23T04:03:27.938Z,7.70
2023-02-23T04:06:15.962Z,7.70
2023-02-23T04:09:02.323Z,7.70
2023-02-23T04:11:56.479Z,7.70
2023-02-23T04:14:28.818Z,7.70
2023-02-23T04:16:57.292Z,7.70
2023-02-23T04:19:29.102Z,7.70
2023-02-23T04:21:57.099Z,7.70
2023-02-23T04:24:25.109Z,7.70
2023-02-23T04:26:53.074Z,7.70
2023-02-23T04:29:21.062Z,7.70
2023-02-23T04:31:49.636Z,7.70
2023-02-23T04:34:17.642Z,7.80
2023-02-23T04:36:46.971Z,7.70
2023-02-23T04:39:15.410Z,7.80
2023-02-23T04:41:43.399Z,7.80
2023-02-23T04:44:11.343Z,7.80
2023-02-23T04:46:39.307Z,7.80
2023-02-23T04:49:07.259Z,7.80
2023-02-23T04:51:36.610Z,7.80
2023-02-23T04:54:06.548Z,7.80
2023-02-23T04:56:34.556Z,7.80
2023-02-23T04:59:02.523Z,7.90
2023-02-23T05:01:32.594Z,7.80
2023-02-23T05:04:01.297Z,7.80
2023-02-23T05:06:29.365Z,7.80
2023-02-23T05:08:57.622Z,7.80
2023-02-23T05:11:27.760Z,7.80
2023-02-23T05:13:55.947Z,7.80
2023-02-23T05:16:24.376Z,7.80
2023-02-23T05:18:52.369Z,7.80
2023-02-23T05:21:20.625Z,7.80
2023-02-23T05:23:48.925Z,7.80
2023-02-23T05:26:16.843Z,7.80
2023-02-23T05:28:46.279Z,7.80
2023-02-23T05:31:14.377Z,7.80
2023-02-23T05:33:43.508Z,7.80
2023-02-23T05:36:13.001Z,7.80
2023-02-23T05:38:41.608Z,7.80
2023-02-23T05:41:10.191Z,7.80
2023-02-23T05:43:38.221Z,7.80
2023-02-23T05:46:09.499Z,7.80
2023-02-23T05:48:37.518Z,7.80
2023-02-23T05:51:06.967Z,7.80
2023-02-23T05:53:35.000Z,7.80
2023-02-23T05:56:03.304Z,7.80
2023-02-23T05:58:31.690Z,7.80
2023-02-23T06:00:59.670Z,7.80
2023-02-23T06:03:29.037Z,7.80
2023-02-23T06:05:59.198Z,7.80
2023-02-23T06:08:27.473Z,7.70
2023-02-23T06:10:55.446Z,7.70
2023-02-23T06:13:23.433Z,7.80
2023-02-23T06:15:51.454Z,7.80
2023-02-23T06:18:19.452Z,7.70
2023-02-23T06:20:48.803Z,7.70
2023-02-23T06:23:16.790Z,7.70
2023-02-23T06:25:45.115Z,7.70
2023-02-23T06:28:13.229Z,7.70
2023-02-23T06:30:41.483Z,7.70
2023-02-23T06:33:09.814Z,7.70
2023-02-23T06:35:37.816Z,7.60
2023-02-23T06:38:07.336Z,7.60
2023-02-23T06:40:35.314Z,7.70
2023-02-23T06:43:03.568Z,7.60
2023-02-23T06:45:31.825Z,7.60
2023-02-23T06:48:00.128Z,7.60
2023-02-23T06:50:28.621Z,7.60
2023-02-23T06:52:57.568Z,7.60
2023-02-23T06:55:27.127Z,7.60
2023-02-23T06:57:55.586Z,7.60
2023-02-23T07:00:24.305Z,7.60
2023-02-23T07:02:52.390Z,7.60
2023-02-23T07:05:20.989Z,7.60
2023-02-23T07:07:48.982Z,7.60
2023-02-23T07:10:17.123Z,7.60
2023-02-23T07:12:46.968Z,7.60
2023-02-23T07:15:17.807Z,7.60
2023-02-23T07:17:48.661Z,7.60
2023-02-23T07:20:17.155Z,7.60
2023-02-23T07:22:45.491Z,7.60
2023-02-23T07:25:13.728Z,7.60
2023-02-23T07:27:43.642Z,7.60
2023-02-23T07:30:14.376Z,7.60
2023-02-23T07:32:42.657Z,7.60
2023-02-23T07:35:11.356Z,7.60
2023-02-23T07:37:39.348Z,7.60
2023-02-23T07:40:09.112Z,7.60
2023-02-23T07:42:37.259Z,7.60
2023-02-23T07:45:06.156Z,7.60
2023-02-23T07:47:36.891Z,7.60
2023-02-23T07:50:10.303Z,7.60
2023-02-23T07:52:39.071Z,7.60
2023-02-23T07:55:09.119Z,7.60
2023-02-23T07:57:37.159Z,7.60
2023-02-23T08:00:06.597Z,7.60
2023-02-23T08:02:36.178Z,7.60
2023-02-23T08:05:06.481Z,7.60
2023-02-23T08:07:36.252Z,7.60
2023-02-23T08:10:07.449Z,7.60
2023-02-23T08:12:37.609Z,7.60
2023-02-23T08:15:08.690Z,7.50
2023-02-23T08:17:39.530Z,7.50
2023-02-23T08:20:10.214Z,7.50
2023-02-23T08:22:48.760Z,7.40
2023-02-23T08:25:21.815Z,7.40
2023-02-23T08:27:55.024Z,7.40
2023-02-23T08:30:26.838Z,7.30
2023-02-23T08:33:08.511Z,7.30
2023-02-23T08:35:43.939Z,7.30
2023-02-23T08:38:16.914Z,7.30
2023-02-23T08:40:51.715Z,7.20
2023-02-23T08:43:29.199Z,7.20
2023-02-23T08:45:58.587Z,7.20
2023-02-23T08:48:31.473Z,7.20
2023-02-23T08:51:01.298Z,7.30
2023-02-23T08:53:32.391Z,7.20
2023-02-23T08:56:08.599Z,7.20
2023-02-23T08:58:39.605Z,7.30
2023-02-23T09:01:08.909Z,7.30
2023-02-23T09:03:40.618Z,7.20
2023-02-23T09:06:12.501Z,7.20
2023-02-23T09:08:44.185Z,7.20
2023-02-23T09:11:13.577Z,7.20
2023-02-23T09:13:43.280Z,7.20
2023-02-23T09:16:16.988Z,7.20
2023-02-23T09:18:49.724Z,7.20
2023-02-23T09:21:22.740Z,7.20
2023-02-23T09:23:52.531Z,7.20
2023-02-23T09:26:26.402Z,7.20
2023-02-23T09:28:58.731Z,7.20
2023-02-23T09:31:33.381Z,7.20
2023-02-23T09:34:05.456Z,7.20
2023-02-23T09:36:35.154Z,7.20
2023-02-23T09:39:04.294Z,7.20
2023-02-23T09:41:59.854Z,7.20
2023-02-23T09:44:38.464Z,7.20
2023-02-23T09:47:22.947Z,7.10
2023-02-23T09:49:55.149Z,7.10
2023-02-23T09:52:28.075Z,7.10
2023-02-23T09:54:56.684Z,7.10
2023-02-23T09:57:30.755Z,7.10
2023-02-23T10:00:01.438Z,7.10
2023-02-23T10:02:39.914Z,7.10
2023-02-23T10:05:13.603Z,7.10
2023-02-23T10:07:51.042Z,7.10
2023-02-23T10:10:28.533Z,7.10
2023-02-23T10:13:12.856Z,7.10
2023-02-23T10:15:48.710Z,7.10
2023-02-23T10:18:45.668Z,7.10
2023-02-23T10:21:25.294Z,7.10
2023-02-23T10:24:08.076Z,7.10
2023-02-23T10:26:48.680Z,7.10
2023-02-23T10:29:28.941Z,7.10
2023-02-23T10:32:10.407Z,7.10
2023-02-23T10:34:40.543Z,7.20
2023-02-23T10:37:16.399Z,7.20
2023-02-23T10:39:45.386Z,7.20
2023-02-23T10:42:17.191Z,7.20
2023-02-23T10:44:50.379Z,7.20
2023-02-23T10:47:22.794Z,7.30
2023-02-23T10:49:58.360Z,7.20
2023-02-23T10:52:41.563Z,7.20
2023-02-23T10:55:24.991Z,7.20
2023-02-23T10:58:06.236Z,7.30
2023-02-23T11:00:47.344Z,7.30
2023-02-23T11:03:24.410Z,7.30
2023-02-23T11:05:53.949Z,7.30
2023-02-23T11:08:32.285Z,7.30
2023-02-23T11:11:19.811Z,7.30
2023-02-23T11:13:50.758Z,7.30
2023-02-23T11:16:23.215Z,7.30
2023-02-23T11:18:58.153Z,7.30
2023-02-23T11:21:33.857Z,7.30
2023-02-23T11:24:18.059Z,7.30
2023-02-23T11:26:54.307Z,7.30
2023-02-23T11:29:35.892Z,7.40
2023-02-23T11:32:15.762Z,7.40
2023-02-23T11:34:49.813Z,7.40
2023-02-23T11:37:25.733Z,7.40
2023-02-23T11:40:04.628Z,7.50
2023-02-23T11:42:37.815Z,7.50
2023-02-23T11:45:17.670Z,7.50
2023-02-23T11:47:50.314Z,7.50
2023-02-23T11:50:31.849Z,7.50
2023-02-23T11:53:11.025Z,7.50
2023-02-23T11:55:58.024Z,7.50
2023-02-23T11:58:39.196Z,7.60
2023-02-23T12:01:14.387Z,7.60
2023-02-23T12:03:55.376Z,7.60
2023-02-23T12:06:33.272Z,7.60
2023-02-23T12:09:21.357Z,7.60
2023-02-23T12:12:04.199Z,7.70
2023-02-23T12:14:41.957Z,7.70
2023-02-23T12:17:17.752Z,7.70
2023-02-23T12:19:55.304Z,7.70
2023-02-23T12:22:29.808Z,7.70
2023-02-23T12:25:06.422Z,7.70
2023-02-23T12:27:43.225Z,7.70
2023-02-23T12:30:21.735Z,7.80
2023-02-23T12:32:58.130Z,7.80
2023-02-23T12:35:32.458Z,7.80
2023-02-23T12:38:10.561Z,7.80
2023-02-23T12:40:44.637Z,7.80
2023-02-23T12:43:21.824Z,7.90
2023-02-23T12:45:59.355Z,7.90
2023-02-23T12:48:34.965Z,7.90
2023-02-23T12:51:10.389Z,8.00
2023-02-23T12:53:43.516Z,8.00
2023-02-23T12:56:23.892Z,8.00
2023-02-23T12:59:13.793Z,8.00
2023-02-23T13:01:51.132Z,8.10
2023-02-23T13:04:58.550Z,8.10
2023-02-23T13:07:38.505Z,8.10
2023-02-23T13:10:26.625Z,8.20
2023-02-23T13:13:05.511Z,8.20
2023-02-23T13:15:50.950Z,8.20
2023-02-23T13:18:28.953Z,8.20
2023-02-23T13:21:04.178Z,8.20
2023-02-23T13:23:38.697Z,8.20
2023-02-23T13:26:17.356Z,8.20
2023-02-23T13:28:57.336Z,8.10
2023-02-23T13:31:31.370Z,8.10
2023-02-23T13:34:02.584Z,8.20
2023-02-23T13:36:35.103Z,8.10
2023-02-23T13:39:41.304Z,8.10
2023-02-23T13:42:19.432Z,8.10
2023-02-23T13:44:55.437Z,8.10
2023-02-23T13:47:37.861Z,8.10
2023-02-23T13:50:19.398Z,8.10
2023-02-23T13:52:50.775Z,8.10
2023-02-23T13:55:49.779Z,8.10
2023-02-23T13:58:24.306Z,8.10
2023-02-23T14:01:06.733Z,8.10
2023-02-23T14:03:43.997Z,8.10
2023-02-23T14:06:17.592Z,8.10
2023-02-23T14:08:54.248Z,8.10
2023-02-23T14:11:44.813Z,8.10
2023-02-23T14:14:17.962Z,8.10
2023-02-23T14:17:13.474Z,8.00
2023-02-23T14:19:46.910Z,8.00
2023-02-23T14:22:22.290Z,8.10
2023-02-23T14:25:38.067Z,8.00
2023-02-23T14:28:30.951Z,8.10
2023-02-23T14:31:05.644Z,8.10
2023-02-23T14:33:52.386Z,8.10
2023-02-23T14:36:46.794Z,8.00
2023-02-23T14:39:25.413Z,8.00
2023-02-23T14:41:56.827Z,8.00
2023-02-23T14:44:31.485Z,8.00
2023-02-23T14:47:05.440Z,7.90
2023-02-23T14:49:37.279Z,7.90
2023-02-23T14:52:15.618Z,7.90
2023-02-23T14:54:46.519Z,7.90
2023-02-23T14:57:23.710Z,7.80
2023-02-23T15:00:06.842Z,7.80
2023-02-23T15:02:43.196Z,7.80
2023-02-23T15:05:18.591Z,7.80
2023-02-23T15:07:51.305Z,7.80
2023-02-23T15:10:25.858Z,7.80
2023-02-23T15:12:55.899Z,7.70
2023-02-23T15:15:27.026Z,7.70
2023-02-23T15:18:01.512Z,7.70
2023-02-23T15:23:08.194Z,7.70
2023-02-23T15:25:39.252Z,7.60
2023-02-23T15:28:31.697Z,7.60
2023-02-23T15:31:04.840Z,7.60
2023-02-23T15:33:41.044Z,7.60
2023-02-23T15:36:17.424Z,7.60
2023-02-23T15:39:11.900Z,7.50
2023-02-23T15:41:46.733Z,7.50
2023-02-23T15:44:27.399Z,7.40
2023-02-23T15:47:02.244Z,7.40
2023-02-23T15:49:37.466Z,7.40
2023-02-23T15:52:14.761Z,7.30
2023-02-23T15:54:57.087Z,7.30
2023-02-23T15:57:35.629Z,7.20
2023-02-23T16:00:13.238Z,7.20
2023-02-23T16:02:42.246Z,7.10
2023-02-23T16:05:20.352Z,7.10
2023-02-23T16:07:48.496Z,7.00
2023-02-23T16:10:30.953Z,6.90
2023-02-23T16:13:03.748Z,6.90
2023-02-23T16:15:36.552Z,6.80
2023-02-23T16:18:06.508Z,6.80
2023-02-23T16:20:38.538Z,6.70
2023-02-23T16:23:08.067Z,6.70
2023-02-23T16:25:37.406Z,6.60
2023-02-23T16:28:09.912Z,6.60
2023-02-23T16:30:43.102Z,6.60
2023-02-23T16:33:19.032Z,6.60
2023-02-23T16:35:50.507Z,6.60
2023-02-23T16:38:25.593Z,6.60
2023-02-23T16:40:55.450Z,6.60
2023-02-23T16:43:23.520Z,6.60
2023-02-23T16:45:51.701Z,6.60
2023-02-23T16:48:20.445Z,6.60
2023-02-23T16:50:48.996Z,6.60
2023-02-23T16:53:17.327Z,6.60
2023-02-23T16:55:50.241Z,6.60
2023-02-23T16:58:23.189Z,6.50
2023-02-23T17:00:51.904Z,6.50
2023-02-23T17:03:23.075Z,6.50
2023-02-23T17:05:51.782Z,6.50
2023-02-23T17:08:20.133Z,6.50
2023-02-23T17:10:50.060Z,6.40
2023-02-23T17:13:22.112Z,6.40
2023-02-23T17:15:53.682Z,6.40
2023-02-23T17:20:58.193Z,6.40
2023-02-23T17:23:28.019Z,6.30
2023-02-23T17:25:57.597Z,6.30
2023-02-23T17:28:26.943Z,6.30
2023-02-23T17:30:55.189Z,6.30
2023-02-23T17:33:23.244Z,6.30
2023-02-23T17:35:51.206Z,6.30
2023-02-23T17:38:21.591Z,6.30
2023-02-23T17:40:50.125Z,6.30
2023-02-23T17:43:20.832Z,6.20
2023-02-23T17:45:50.923Z,6.20
2023-02-23T17:48:18.905Z,6.10
2023-02-23T17:50:46.864Z,6.10
2023-02-23T17:53:14.827Z,6.10
2023-02-23T17:55:42.800Z,6.10
2023-02-23T17:58:12.436Z,6.00
2023-02-23T18:00:40.439Z,6.00
2023-02-23T18:03:09.841Z,6.00
2023-02-23T18:05:37.852Z,5.90
2023-02-23T18:08:06.005Z,5.90
2023-02-23T18:10:36.759Z,5.80
2023-02-23T18:13:05.158Z,5.90
2023-02-23T18:15:33.855Z,5.80
2023-02-23T18:18:01.992Z,5.80
2023-02-23T18:20:31.314Z,5.80
2023-02-23T18:22:59.261Z,5.80
2023-02-23T18:25:29.780Z,5.80
2023-02-23T18:27:59.136Z,5.80
2023-02-23T18:30:28.060Z,5.80
2023-02-23T18:33:00.348Z,5.80
2023-02-23T18:35:28.580Z,5.80
2023-02-23T18:37:57.971Z,5.80
2023-02-23T18:40:26.008Z,5.90
2023-02-23T18:42:54.000Z,5.90
2023-02-23T18:45:22.023Z,5.80
2023-02-23T18:47:50.022Z,5.80
2023-02-23T18:50:19.593Z,5.90
2023-02-23T18:52:48.911Z,5.80
2023-02-23T18:55:18.634Z,5.80
2023-02-23T18:57:47.096Z,5.80
2023-02-23T19:00:16.852Z,5.80
2023-02-23T19:02:46.349Z,5.80
2023-02-23T19:05:15.617Z,5.80
2023-02-23T19:07:43.864Z,5.80
2023-02-23T19:10:16.253Z,5.70
2023-02-23T19:12:45.674Z,5.70
2023-02-23T19:15:14.153Z,5.70
2023-02-23T19:17:42.189Z,5.60
2023-02-23T19:20:14.252Z,5.60
2023-02-23T19:22:43.029Z,5.60
2023-02-23T19:25:14.985Z,5.60
2023-02-23T19:27:44.847Z,5.60
2023-02-23T19:30:14.604Z,5.50
2023-02-23T19:32:43.410Z,5.50
2023-02-23T19:35:14.591Z,5.50
2023-02-23T19:37:48.395Z,5.50
2023-02-23T19:40:19.784Z,5.40
2023-02-23T19:42:50.465Z,5.50
2023-02-23T19:45:19.291Z,5.50
2023-02-23T19:47:47.287Z,5.40
2023-02-23T19:50:18.835Z,5.40
2023-02-23T19:52:47.313Z,5.40
2023-02-23T19:55:15.991Z,5.40
2023-02-23T19:57:44.176Z,5.30
2023-02-23T20:00:14.559Z,5.30
2023-02-23T20:02:43.763Z,5.30
2023-02-23T20:05:14.010Z,5.30
2023-02-23T20:07:42.413Z,5.30
2023-02-23T20:10:13.869Z,5.30
2023-02-23T20:12:41.978Z,5.30
2023-02-23T20:15:11.190Z,5.30
2023-02-23T20:17:40.716Z,5.30
2023-02-23T20:20:11.008Z,5.20
2023-02-23T20:22:41.348Z,5.20
2023-02-23T20:25:15.906Z,5.20
2023-02-23T20:27:45.150Z,5.20
2023-02-23T20:30:14.121Z,5.10
2023-02-23T20:32:43.860Z,5.10
2023-02-23T20:35:14.253Z,5.10
2023-02-23T20:37:42.722Z,5.00
2023-02-23T20:40:18.331Z,5.00
2023-02-23T20:42:48.717Z,4.90
2023-02-23T20:45:19.752Z,4.90
2023-02-23T20:47:52.921Z,4.90
2023-02-23T20:50:21.930Z,4.90
2023-02-23T20:52:50.773Z,4.90
2023-02-23T20:55:19.818Z,4.90
2023-02-23T20:57:48.971Z,4.90
2023-02-23T21:00:31.823Z,4.80
2023-02-23T21:03:03.317Z,4.90
2023-02-23T21:05:34.171Z,4.80
2023-02-23T21:08:03.877Z,4.80
2023-02-23T21:10:32.216Z,4.80
2023-02-23T21:13:00.652Z,4.80
2023-02-23T21:15:30.289Z,4.70
2023-02-23T21:17:59.474Z,4.70
2023-02-23T21:20:29.529Z,4.70
2023-02-23T21:22:57.813Z,4.70
2023-02-23T21:25:28.003Z,4.70
2023-02-23T21:27:56.113Z,4.70
2023-02-23T21:30:28.549Z,4.70
2023-02-23T21:32:59.488Z,4.60
2023-02-23T21:35:29.386Z,4.60
2023-02-23T21:37:57.899Z,4.60
2023-02-23T21:40:26.020Z,4.60
2023-02-23T21:42:54.121Z,4.60
2023-02-23T21:45:22.134Z,4.60
2023-02-23T21:47:50.398Z,4.60
2023-02-23T21:50:20.436Z,4.70
2023-02-23T21:52:53.071Z,4.70
2023-02-23T21:55:21.957Z,4.60
2023-02-23T21:57:51.195Z,4.60
2023-02-23T22:00:20.962Z,4.60
2023-02-23T22:02:49.500Z,4.60
2023-02-23T22:05:19.646Z,4.60
2023-02-23T22:07:54.411Z,4.60
2023-02-23T22:10:24.561Z,4.60
2023-02-23T22:12:56.018Z,4.70
2023-02-23T22:15:28.182Z,4.70
2023-02-23T22:17:56.183Z,4.60
2023-02-23T22:20:25.409Z,4.60
2023-02-23T22:22:54.753Z,4.60
2023-02-23T22:25:22.731Z,4.60
2023-02-23T22:27:50.705Z,4.50
2023-02-23T22:30:22.415Z,4.50
2023-02-23T22:32:50.539Z,4.50
2023-02-23T22:35:18.726Z,4.50
2023-02-23T22:37:47.571Z,4.50
2023-02-23T22:40:17.240Z,4.50
2023-02-23T22:42:48.328Z,4.50
2023-02-23T22:45:17.415Z,4.50
2023-02-23T22:47:45.568Z,4.40
2023-02-23T22:50:19.067Z,4.40
2023-02-23T22:52:47.903Z,4.40
2023-02-23T22:55:19.216Z,4.40
2023-02-23T22:57:47.670Z,4.40
2023-02-23T23:00:19.474Z,4.40
2023-02-23T23:02:47.491Z,4.30
2023-02-23T23:05:16.234Z,4.40
2023-02-23T23:07:46.735Z,4.40
2023-02-23T23:10:15.757Z,4.30
2023-02-23T23:12:46.409Z,4.30
2023-02-23T23:15:17.454Z,4.30
2023-02-23T23:17:48.435Z,4.30
2023-02-23T23:20:18.817Z,4.30
2023-02-23T23:22:46.881Z,4.30
2023-02-23T23:25:15.712Z,4.30
2023-02-23T23:27:45.997Z,4.30
2023-02-23T23:30:16.916Z,4.30
2023-02-23T23:32:45.217Z,4.40
2023-02-23T23:35:13.529Z,4.40
2023-02-23T23:37:41.557Z,4.30
2023-02-23T23:40:15.024Z,4.30
2023-02-23T23:42:46.073Z,4.30
2023-02-23T23:45:17.749Z,4.30
2023-02-23T23:47:46.107Z,4.30
2023-02-23T23:50:16.202Z,4.30
2023-02-23T23:52:45.640Z,4.40
2023-02-23T23:55:15.532Z,4.40
2023-02-23T23:57:43.591Z,4.50
